sensor_id;sensor_type;location;lat;lon;timestamp;P1;durP1;ratioP1;P2;durP2;ratioP2
49384;SDS011;36795;45.028;38.968;2023-06-22T00:02:03;28.25;;;9.18;;
49384;SDS011;36795;45.028;38.968;2023-06-22T00:04:50;33.15;;;9.75;;
49384;SDS011;36795;45.028;38.968;2023-06-22T00:07:35;26.95;;;9.95;;
49384;SDS011;36795;45.028;38.968;2023-06-22T00:10:22;29.25;;;9.60;;
49384;SDS011;36795;45.028;38.968;2023-06-22T00:13:08;30.90;;;10.48;;
49384;SDS011;36795;45.028;38.968;2023-06-22T00:15:54;29.02;;;10.02;;
49384;SDS011;36795;45.028;38.968;2023-06-22T00:18:41;26.70;;;10.52;;
49384;SDS011;36795;45.028;38.968;2023-06-22T00:21:32;29.27;;;10.40;;
49384;SDS011;36795;45.028;38.968;2023-06-22T00:24:19;27.87;;;10.27;;
49384;SDS011;36795;45.028;38.968;2023-06-22T00:27:06;28.27;;;10.27;;
49384;SDS011;36795;45.028;38.968;2023-06-22T00:29:51;30.33;;;11.55;;
49384;SDS011;36795;45.028;38.968;2023-06-22T00:32:39;28.30;;;11.23;;
49384;SDS011;36795;45.028;38.968;2023-06-22T00:35:26;28.70;;;10.25;;
49384;SDS011;36795;45.028;38.968;2023-06-22T00:38:15;33.83;;;10.48;;
49384;SDS011;36795;45.028;38.968;2023-06-22T00:41:01;29.95;;;10.40;;
49384;SDS011;36795;45.028;38.968;2023-06-22T00:43:47;30.40;;;11.05;;
49384;SDS011;36795;45.028;38.968;2023-06-22T00:46:33;26.67;;;9.65;;
49384;SDS011;36795;45.028;38.968;2023-06-22T00:49:20;27.45;;;11.18;;
49384;SDS011;36795;45.028;38.968;2023-06-22T00:52:06;30.15;;;10.23;;
49384;SDS011;36795;45.028;38.968;2023-06-22T00:54:55;28.23;;;10.57;;
49384;SDS011;36795;45.028;38.968;2023-06-22T00:57:42;26.48;;;9.77;;
49384;SDS011;36795;45.028;38.968;2023-06-22T01:00:29;25.98;;;10.30;;
49384;SDS011;36795;45.028;38.968;2023-06-22T01:03:15;29.95;;;9.35;;
49384;SDS011;36795;45.028;38.968;2023-06-22T01:06:04;25.42;;;9.38;;
49384;SDS011;36795;45.028;38.968;2023-06-22T01:08:57;31.85;;;10.32;;
49384;SDS011;36795;45.028;38.968;2023-06-22T01:11:56;27.58;;;9.80;;
49384;SDS011;36795;45.028;38.968;2023-06-22T01:14:55;26.50;;;9.38;;
49384;SDS011;36795;45.028;38.968;2023-06-22T01:18:08;25.48;;;8.82;;
49384;SDS011;36795;45.028;38.968;2023-06-22T01:20:55;25.05;;;9.23;;
49384;SDS011;36795;45.028;38.968;2023-06-22T01:30:11;25.65;;;10.80;;
49384;SDS011;36795;45.028;38.968;2023-06-22T01:33:01;26.50;;;10.25;;
49384;SDS011;36795;45.028;38.968;2023-06-22T01:35:49;25.75;;;10.40;;
49384;SDS011;36795;45.028;38.968;2023-06-22T01:38:37;29.20;;;10.65;;
49384;SDS011;36795;45.028;38.968;2023-06-22T01:41:25;29.48;;;9.52;;
49384;SDS011;36795;45.028;38.968;2023-06-22T01:44:12;29.52;;;10.45;;
49384;SDS011;36795;45.028;38.968;2023-06-22T01:47:00;25.50;;;8.98;;
49384;SDS011;36795;45.028;38.968;2023-06-22T01:49:46;26.00;;;9.18;;
49384;SDS011;36795;45.028;38.968;2023-06-22T01:52:33;25.27;;;9.25;;
49384;SDS011;36795;45.028;38.968;2023-06-22T01:55:18;25.45;;;9.73;;
49384;SDS011;36795;45.028;38.968;2023-06-22T01:58:07;26.52;;;9.90;;
49384;SDS011;36795;45.028;38.968;2023-06-22T02:00:56;25.80;;;9.55;;
49384;SDS011;36795;45.028;38.968;2023-06-22T02:03:54;27.10;;;9.88;;
49384;SDS011;36795;45.028;38.968;2023-06-22T02:06:58;25.60;;;9.50;;
49384;SDS011;36795;45.028;38.968;2023-06-22T02:09:46;25.55;;;9.32;;
49384;SDS011;36795;45.028;38.968;2023-06-22T02:12:37;26.27;;;10.30;;
49384;SDS011;36795;45.028;38.968;2023-06-22T02:15:24;25.58;;;9.70;;
49384;SDS011;36795;45.028;38.968;2023-06-22T02:18:12;25.33;;;9.13;;
49384;SDS011;36795;45.028;38.968;2023-06-22T02:20:58;25.37;;;9.95;;
49384;SDS011;36795;45.028;38.968;2023-06-22T02:23:44;30.40;;;10.27;;
49384;SDS011;36795;45.028;38.968;2023-06-22T02:26:31;24.48;;;9.45;;
49384;SDS011;36795;45.028;38.968;2023-06-22T02:29:19;23.55;;;9.55;;
49384;SDS011;36795;45.028;38.968;2023-06-22T02:32:05;25.00;;;9.60;;
49384;SDS011;36795;45.028;38.968;2023-06-22T02:34:52;26.60;;;9.98;;
49384;SDS011;36795;45.028;38.968;2023-06-22T02:37:38;24.10;;;9.25;;
49384;SDS011;36795;45.028;38.968;2023-06-22T02:40:27;26.02;;;9.20;;
49384;SDS011;36795;45.028;38.968;2023-06-22T02:43:15;25.62;;;9.30;;
49384;SDS011;36795;45.028;38.968;2023-06-22T02:46:02;23.02;;;8.63;;
49384;SDS011;36795;45.028;38.968;2023-06-22T02:48:48;26.80;;;9.48;;
49384;SDS011;36795;45.028;38.968;2023-06-22T02:51:35;25.90;;;9.50;;
49384;SDS011;36795;45.028;38.968;2023-06-22T02:54:21;26.65;;;9.90;;
49384;SDS011;36795;45.028;38.968;2023-06-22T02:57:08;24.20;;;9.98;;
49384;SDS011;36795;45.028;38.968;2023-06-22T02:59:59;24.77;;;10.20;;
49384;SDS011;36795;45.028;38.968;2023-06-22T03:02:48;24.95;;;10.82;;
49384;SDS011;36795;45.028;38.968;2023-06-22T03:05:35;29.52;;;10.80;;
49384;SDS011;36795;45.028;38.968;2023-06-22T03:08:21;28.00;;;11.75;;
49384;SDS011;36795;45.028;38.968;2023-06-22T03:11:07;25.30;;;10.05;;
49384;SDS011;36795;45.028;38.968;2023-06-22T03:13:53;24.17;;;10.27;;
49384;SDS011;36795;45.028;38.968;2023-06-22T03:16:40;28.62;;;10.40;;
49384;SDS011;36795;45.028;38.968;2023-06-22T03:19:26;26.00;;;10.90;;
49384;SDS011;36795;45.028;38.968;2023-06-22T03:22:14;25.58;;;10.07;;
49384;SDS011;36795;45.028;38.968;2023-06-22T03:25:00;26.30;;;10.10;;
49384;SDS011;36795;45.028;38.968;2023-06-22T03:27:46;26.70;;;10.18;;
49384;SDS011;36795;45.028;38.968;2023-06-22T03:30:34;25.02;;;10.30;;
49384;SDS011;36795;45.028;38.968;2023-06-22T03:33:20;28.73;;;10.15;;
49384;SDS011;36795;45.028;38.968;2023-06-22T03:36:25;23.70;;;9.52;;
49384;SDS011;36795;45.028;38.968;2023-06-22T03:39:11;25.08;;;10.60;;
49384;SDS011;36795;45.028;38.968;2023-06-22T03:41:58;27.05;;;10.38;;
49384;SDS011;36795;45.028;38.968;2023-06-22T03:44:45;24.33;;;9.68;;
49384;SDS011;36795;45.028;38.968;2023-06-22T03:47:32;26.75;;;10.50;;
49384;SDS011;36795;45.028;38.968;2023-06-22T03:50:18;25.52;;;10.15;;
49384;SDS011;36795;45.028;38.968;2023-06-22T03:53:05;27.27;;;11.05;;
49384;SDS011;36795;45.028;38.968;2023-06-22T03:55:52;26.92;;;9.60;;
49384;SDS011;36795;45.028;38.968;2023-06-22T03:58:39;24.48;;;10.23;;
49384;SDS011;36795;45.028;38.968;2023-06-22T04:01:28;28.62;;;9.88;;
49384;SDS011;36795;45.028;38.968;2023-06-22T04:04:14;26.58;;;10.15;;
49384;SDS011;36795;45.028;38.968;2023-06-22T04:07:00;26.30;;;9.55;;
49384;SDS011;36795;45.028;38.968;2023-06-22T04:09:46;25.00;;;10.55;;
49384;SDS011;36795;45.028;38.968;2023-06-22T04:12:33;32.65;;;18.00;;
49384;SDS011;36795;45.028;38.968;2023-06-22T04:15:20;27.92;;;9.93;;
49384;SDS011;36795;45.028;38.968;2023-06-22T04:18:06;26.35;;;10.18;;
49384;SDS011;36795;45.028;38.968;2023-06-22T04:20:52;26.80;;;9.05;;
49384;SDS011;36795;45.028;38.968;2023-06-22T04:23:38;26.90;;;9.77;;
49384;SDS011;36795;45.028;38.968;2023-06-22T04:26:24;27.20;;;11.18;;
49384;SDS011;36795;45.028;38.968;2023-06-22T04:29:10;29.52;;;9.68;;
49384;SDS011;36795;45.028;38.968;2023-06-22T04:31:56;26.12;;;10.05;;
49384;SDS011;36795;45.028;38.968;2023-06-22T04:34:43;25.67;;;9.35;;
49384;SDS011;36795;45.028;38.968;2023-06-22T04:37:29;26.33;;;9.25;;
49384;SDS011;36795;45.028;38.968;2023-06-22T04:40:15;25.48;;;9.15;;
49384;SDS011;36795;45.028;38.968;2023-06-22T04:43:02;26.42;;;8.80;;
49384;SDS011;36795;45.028;38.968;2023-06-22T04:45:47;27.45;;;9.82;;
49384;SDS011;36795;45.028;38.968;2023-06-22T04:48:38;27.33;;;10.02;;
49384;SDS011;36795;45.028;38.968;2023-06-22T04:51:23;25.15;;;9.05;;
49384;SDS011;36795;45.028;38.968;2023-06-22T04:54:16;28.05;;;10.00;;
49384;SDS011;36795;45.028;38.968;2023-06-22T04:57:02;24.20;;;9.82;;
49384;SDS011;36795;45.028;38.968;2023-06-22T04:59:50;29.42;;;9.75;;
49384;SDS011;36795;45.028;38.968;2023-06-22T05:02:36;30.52;;;9.85;;
49384;SDS011;36795;45.028;38.968;2023-06-22T05:05:25;25.70;;;9.70;;
49384;SDS011;36795;45.028;38.968;2023-06-22T05:08:12;25.23;;;8.93;;
49384;SDS011;36795;45.028;38.968;2023-06-22T05:10:59;23.85;;;8.15;;
49384;SDS011;36795;45.028;38.968;2023-06-22T05:13:45;24.70;;;8.98;;
49384;SDS011;36795;45.028;38.968;2023-06-22T05:16:31;25.73;;;8.55;;
49384;SDS011;36795;45.028;38.968;2023-06-22T05:19:17;25.92;;;8.95;;
49384;SDS011;36795;45.028;38.968;2023-06-22T05:22:04;27.95;;;7.85;;
49384;SDS011;36795;45.028;38.968;2023-06-22T05:24:51;22.37;;;8.48;;
49384;SDS011;36795;45.028;38.968;2023-06-22T05:27:37;22.85;;;8.85;;
49384;SDS011;36795;45.028;38.968;2023-06-22T05:30:24;24.23;;;8.48;;
49384;SDS011;36795;45.028;38.968;2023-06-22T05:33:11;21.77;;;8.38;;
49384;SDS011;36795;45.028;38.968;2023-06-22T05:36:05;30.50;;;9.07;;
49384;SDS011;36795;45.028;38.968;2023-06-22T05:38:59;26.05;;;8.48;;
49384;SDS011;36795;45.028;38.968;2023-06-22T05:41:59;26.58;;;9.82;;
49384;SDS011;36795;45.028;38.968;2023-06-22T05:44:45;24.40;;;8.25;;
49384;SDS011;36795;45.028;38.968;2023-06-22T05:47:32;25.58;;;8.55;;
49384;SDS011;36795;45.028;38.968;2023-06-22T05:50:19;27.45;;;9.15;;
49384;SDS011;36795;45.028;38.968;2023-06-22T05:53:05;26.85;;;9.18;;
49384;SDS011;36795;45.028;38.968;2023-06-22T05:55:52;29.67;;;9.73;;
49384;SDS011;36795;45.028;38.968;2023-06-22T05:58:38;27.50;;;9.43;;
49384;SDS011;36795;45.028;38.968;2023-06-22T06:01:24;24.92;;;9.10;;
49384;SDS011;36795;45.028;38.968;2023-06-22T06:04:11;26.30;;;9.27;;
49384;SDS011;36795;45.028;38.968;2023-06-22T06:06:57;32.20;;;9.88;;
49384;SDS011;36795;45.028;38.968;2023-06-22T06:09:43;26.70;;;8.45;;
49384;SDS011;36795;45.028;38.968;2023-06-22T06:12:29;23.30;;;8.20;;
49384;SDS011;36795;45.028;38.968;2023-06-22T06:15:15;24.23;;;9.30;;
49384;SDS011;36795;45.028;38.968;2023-06-22T06:18:02;30.70;;;8.73;;
49384;SDS011;36795;45.028;38.968;2023-06-22T06:20:50;26.73;;;8.43;;
49384;SDS011;36795;45.028;38.968;2023-06-22T06:23:36;27.52;;;8.95;;
49384;SDS011;36795;45.028;38.968;2023-06-22T06:26:22;27.42;;;8.88;;
49384;SDS011;36795;45.028;38.968;2023-06-22T06:29:12;24.52;;;7.93;;
49384;SDS011;36795;45.028;38.968;2023-06-22T06:32:01;24.48;;;8.65;;
49384;SDS011;36795;45.028;38.968;2023-06-22T06:34:47;22.15;;;8.57;;
49384;SDS011;36795;45.028;38.968;2023-06-22T06:37:37;23.38;;;8.00;;
49384;SDS011;36795;45.028;38.968;2023-06-22T06:40:24;26.12;;;9.55;;
49384;SDS011;36795;45.028;38.968;2023-06-22T06:43:11;27.65;;;8.88;;
49384;SDS011;36795;45.028;38.968;2023-06-22T06:45:57;22.27;;;8.02;;
49384;SDS011;36795;45.028;38.968;2023-06-22T06:48:44;26.87;;;8.35;;
49384;SDS011;36795;45.028;38.968;2023-06-22T06:51:29;26.77;;;7.57;;
49384;SDS011;36795;45.028;38.968;2023-06-22T06:54:16;24.37;;;9.27;;
49384;SDS011;36795;45.028;38.968;2023-06-22T06:57:02;28.00;;;7.68;;
49384;SDS011;36795;45.028;38.968;2023-06-22T06:59:49;26.50;;;8.50;;
49384;SDS011;36795;45.028;38.968;2023-06-22T07:02:35;26.35;;;7.87;;
49384;SDS011;36795;45.028;38.968;2023-06-22T07:05:22;23.08;;;7.15;;
49384;SDS011;36795;45.028;38.968;2023-06-22T07:08:08;27.08;;;8.18;;
49384;SDS011;36795;45.028;38.968;2023-06-22T07:11:01;27.17;;;7.78;;
49384;SDS011;36795;45.028;38.968;2023-06-22T07:13:49;24.33;;;7.30;;
49384;SDS011;36795;45.028;38.968;2023-06-22T07:16:35;22.13;;;7.60;;
49384;SDS011;36795;45.028;38.968;2023-06-22T07:19:28;23.58;;;7.40;;
49384;SDS011;36795;45.028;38.968;2023-06-22T07:22:14;23.40;;;8.27;;
49384;SDS011;36795;45.028;38.968;2023-06-22T07:25:00;24.63;;;7.47;;
49384;SDS011;36795;45.028;38.968;2023-06-22T07:27:56;22.58;;;7.00;;
49384;SDS011;36795;45.028;38.968;2023-06-22T07:30:49;24.70;;;7.43;;
49384;SDS011;36795;45.028;38.968;2023-06-22T07:33:36;22.20;;;7.55;;
49384;SDS011;36795;45.028;38.968;2023-06-22T07:36:22;25.75;;;7.62;;
49384;SDS011;36795;45.028;38.968;2023-06-22T07:39:09;24.17;;;7.45;;
49384;SDS011;36795;45.028;38.968;2023-06-22T07:41:54;21.70;;;7.10;;
49384;SDS011;36795;45.028;38.968;2023-06-22T07:44:41;20.08;;;6.95;;
49384;SDS011;36795;45.028;38.968;2023-06-22T07:47:30;22.95;;;6.97;;
49384;SDS011;36795;45.028;38.968;2023-06-22T07:50:19;18.50;;;5.90;;
49384;SDS011;36795;45.028;38.968;2023-06-22T07:53:05;21.52;;;5.78;;
49384;SDS011;36795;45.028;38.968;2023-06-22T07:55:51;26.52;;;5.93;;
49384;SDS011;36795;45.028;38.968;2023-06-22T07:58:38;22.87;;;6.45;;
49384;SDS011;36795;45.028;38.968;2023-06-22T08:01:24;22.77;;;6.82;;
49384;SDS011;36795;45.028;38.968;2023-06-22T08:04:11;23.10;;;5.93;;
49384;SDS011;36795;45.028;38.968;2023-06-22T08:06:56;22.58;;;5.65;;
49384;SDS011;36795;45.028;38.968;2023-06-22T08:09:47;19.75;;;5.97;;
49384;SDS011;36795;45.028;38.968;2023-06-22T08:12:34;22.75;;;6.12;;
49384;SDS011;36795;45.028;38.968;2023-06-22T08:15:20;18.87;;;5.47;;
49384;SDS011;36795;45.028;38.968;2023-06-22T08:18:07;22.48;;;5.18;;
49384;SDS011;36795;45.028;38.968;2023-06-22T08:20:53;15.52;;;5.50;;
49384;SDS011;36795;45.028;38.968;2023-06-22T08:23:39;22.60;;;6.45;;
49384;SDS011;36795;45.028;38.968;2023-06-22T08:26:25;20.73;;;6.15;;
49384;SDS011;36795;45.028;38.968;2023-06-22T08:29:11;18.73;;;5.50;;
49384;SDS011;36795;45.028;38.968;2023-06-22T08:31:58;16.30;;;5.12;;
49384;SDS011;36795;45.028;38.968;2023-06-22T08:34:44;17.17;;;5.50;;
49384;SDS011;36795;45.028;38.968;2023-06-22T08:37:30;24.77;;;6.03;;
49384;SDS011;36795;45.028;38.968;2023-06-22T08:40:16;20.95;;;5.62;;
49384;SDS011;36795;45.028;38.968;2023-06-22T08:43:02;20.35;;;5.25;;
49384;SDS011;36795;45.028;38.968;2023-06-22T08:45:48;18.85;;;5.00;;
49384;SDS011;36795;45.028;38.968;2023-06-22T08:48:35;19.10;;;5.45;;
49384;SDS011;36795;45.028;38.968;2023-06-22T08:51:20;19.98;;;5.43;;
49384;SDS011;36795;45.028;38.968;2023-06-22T08:54:06;20.02;;;4.90;;
49384;SDS011;36795;45.028;38.968;2023-06-22T08:56:52;22.77;;;5.43;;
49384;SDS011;36795;45.028;38.968;2023-06-22T08:59:39;19.67;;;5.32;;
49384;SDS011;36795;45.028;38.968;2023-06-22T09:02:26;15.18;;;4.78;;
49384;SDS011;36795;45.028;38.968;2023-06-22T09:05:16;19.58;;;5.10;;
49384;SDS011;36795;45.028;38.968;2023-06-22T09:08:03;18.85;;;5.00;;
49384;SDS011;36795;45.028;38.968;2023-06-22T09:10:49;22.13;;;5.28;;
49384;SDS011;36795;45.028;38.968;2023-06-22T09:13:35;17.60;;;4.60;;
49384;SDS011;36795;45.028;38.968;2023-06-22T09:16:22;18.65;;;5.72;;
49384;SDS011;36795;45.028;38.968;2023-06-22T09:19:08;19.17;;;5.53;;
49384;SDS011;36795;45.028;38.968;2023-06-22T09:21:55;24.00;;;5.37;;
49384;SDS011;36795;45.028;38.968;2023-06-22T09:24:41;16.40;;;5.03;;
49384;SDS011;36795;45.028;38.968;2023-06-22T09:27:27;19.02;;;5.60;;
49384;SDS011;36795;45.028;38.968;2023-06-22T09:30:13;20.10;;;5.18;;
49384;SDS011;36795;45.028;38.968;2023-06-22T09:33:00;21.85;;;8.32;;
49384;SDS011;36795;45.028;38.968;2023-06-22T09:35:46;18.55;;;4.80;;
49384;SDS011;36795;45.028;38.968;2023-06-22T09:38:36;18.02;;;5.20;;
49384;SDS011;36795;45.028;38.968;2023-06-22T09:41:25;14.85;;;4.53;;
49384;SDS011;36795;45.028;38.968;2023-06-22T09:44:17;19.30;;;5.25;;
49384;SDS011;36795;45.028;38.968;2023-06-22T09:47:03;17.98;;;5.03;;
49384;SDS011;36795;45.028;38.968;2023-06-22T09:49:49;18.08;;;5.20;;
49384;SDS011;36795;45.028;38.968;2023-06-22T09:52:35;17.35;;;5.12;;
49384;SDS011;36795;45.028;38.968;2023-06-22T09:55:21;20.55;;;5.00;;
49384;SDS011;36795;45.028;38.968;2023-06-22T09:58:08;18.50;;;4.60;;
49384;SDS011;36795;45.028;38.968;2023-06-22T10:00:55;17.00;;;4.87;;
49384;SDS011;36795;45.028;38.968;2023-06-22T10:03:41;14.50;;;4.70;;
49384;SDS011;36795;45.028;38.968;2023-06-22T10:06:28;15.52;;;4.70;;
49384;SDS011;36795;45.028;38.968;2023-06-22T10:09:14;17.95;;;4.78;;
49384;SDS011;36795;45.028;38.968;2023-06-22T10:12:00;16.75;;;4.80;;
49384;SDS011;36795;45.028;38.968;2023-06-22T10:14:47;16.40;;;4.60;;
49384;SDS011;36795;45.028;38.968;2023-06-22T10:17:33;21.75;;;4.78;;
49384;SDS011;36795;45.028;38.968;2023-06-22T10:20:19;24.50;;;5.82;;
49384;SDS011;36795;45.028;38.968;2023-06-22T10:23:07;17.17;;;4.78;;
49384;SDS011;36795;45.028;38.968;2023-06-22T10:25:53;21.85;;;5.55;;
49384;SDS011;36795;45.028;38.968;2023-06-22T10:28:39;17.95;;;5.20;;
49384;SDS011;36795;45.028;38.968;2023-06-22T10:31:25;18.45;;;5.15;;
49384;SDS011;36795;45.028;38.968;2023-06-22T10:34:12;15.10;;;4.85;;
49384;SDS011;36795;45.028;38.968;2023-06-22T10:36:58;17.02;;;4.53;;
49384;SDS011;36795;45.028;38.968;2023-06-22T10:39:44;17.90;;;5.62;;
49384;SDS011;36795;45.028;38.968;2023-06-22T10:42:30;16.92;;;4.70;;
49384;SDS011;36795;45.028;38.968;2023-06-22T10:45:16;21.00;;;5.55;;
49384;SDS011;36795;45.028;38.968;2023-06-22T10:48:03;16.05;;;4.28;;
49384;SDS011;36795;45.028;38.968;2023-06-22T10:50:49;17.40;;;5.20;;
49384;SDS011;36795;45.028;38.968;2023-06-22T10:53:35;18.23;;;4.80;;
49384;SDS011;36795;45.028;38.968;2023-06-22T10:56:21;16.30;;;5.00;;
49384;SDS011;36795;45.028;38.968;2023-06-22T10:59:07;17.08;;;5.72;;
49384;SDS011;36795;45.028;38.968;2023-06-22T11:01:53;19.65;;;5.12;;
49384;SDS011;36795;45.028;38.968;2023-06-22T11:04:40;17.10;;;4.82;;
49384;SDS011;36795;45.028;38.968;2023-06-22T11:07:26;15.55;;;4.70;;
49384;SDS011;36795;45.028;38.968;2023-06-22T11:10:14;16.73;;;5.05;;
49384;SDS011;36795;45.028;38.968;2023-06-22T11:13:00;17.87;;;5.25;;
49384;SDS011;36795;45.028;38.968;2023-06-22T11:15:47;20.25;;;5.50;;
49384;SDS011;36795;45.028;38.968;2023-06-22T11:18:33;17.85;;;5.35;;
49384;SDS011;36795;45.028;38.968;2023-06-22T11:21:20;18.98;;;5.28;;
49384;SDS011;36795;45.028;38.968;2023-06-22T11:24:06;19.15;;;5.07;;
49384;SDS011;36795;45.028;38.968;2023-06-22T11:26:52;19.80;;;4.62;;
49384;SDS011;36795;45.028;38.968;2023-06-22T11:29:42;18.33;;;4.95;;
49384;SDS011;36795;45.028;38.968;2023-06-22T11:32:31;18.83;;;4.93;;
49384;SDS011;36795;45.028;38.968;2023-06-22T11:35:18;16.33;;;4.93;;
49384;SDS011;36795;45.028;38.968;2023-06-22T11:38:05;20.35;;;4.65;;
49384;SDS011;36795;45.028;38.968;2023-06-22T11:40:51;17.23;;;4.90;;
49384;SDS011;36795;45.028;38.968;2023-06-22T11:43:37;19.67;;;5.35;;
49384;SDS011;36795;45.028;38.968;2023-06-22T11:46:23;15.52;;;4.65;;
49384;SDS011;36795;45.028;38.968;2023-06-22T11:49:10;17.33;;;5.32;;
49384;SDS011;36795;45.028;38.968;2023-06-22T11:51:56;20.62;;;5.00;;
49384;SDS011;36795;45.028;38.968;2023-06-22T11:54:42;15.25;;;4.75;;
49384;SDS011;36795;45.028;38.968;2023-06-22T11:57:28;17.55;;;5.05;;
49384;SDS011;36795;45.028;38.968;2023-06-22T12:00:14;18.92;;;4.95;;
49384;SDS011;36795;45.028;38.968;2023-06-22T12:03:03;18.15;;;5.18;;
49384;SDS011;36795;45.028;38.968;2023-06-22T12:05:50;15.43;;;4.53;;
49384;SDS011;36795;45.028;38.968;2023-06-22T12:08:50;20.20;;;5.30;;
49384;SDS011;36795;45.028;38.968;2023-06-22T12:11:36;20.33;;;5.78;;
49384;SDS011;36795;45.028;38.968;2023-06-22T12:14:22;16.67;;;4.90;;
49384;SDS011;36795;45.028;38.968;2023-06-22T12:17:08;15.60;;;4.45;;
49384;SDS011;36795;45.028;38.968;2023-06-22T12:19:54;17.30;;;4.78;;
49384;SDS011;36795;45.028;38.968;2023-06-22T12:22:41;12.35;;;4.32;;
49384;SDS011;36795;45.028;38.968;2023-06-22T12:25:27;17.85;;;5.18;;
49384;SDS011;36795;45.028;38.968;2023-06-22T12:28:13;21.52;;;4.65;;
49384;SDS011;36795;45.028;38.968;2023-06-22T12:31:02;17.80;;;4.78;;
49384;SDS011;36795;45.028;38.968;2023-06-22T12:33:48;15.98;;;4.68;;
49384;SDS011;36795;45.028;38.968;2023-06-22T12:36:34;18.98;;;4.75;;
49384;SDS011;36795;45.028;38.968;2023-06-22T12:39:20;19.00;;;4.90;;
49384;SDS011;36795;45.028;38.968;2023-06-22T12:42:07;17.02;;;4.93;;
49384;SDS011;36795;45.028;38.968;2023-06-22T12:44:56;22.33;;;7.00;;
49384;SDS011;36795;45.028;38.968;2023-06-22T12:47:42;20.35;;;5.53;;
49384;SDS011;36795;45.028;38.968;2023-06-22T12:50:29;22.13;;;8.27;;
49384;SDS011;36795;45.028;38.968;2023-06-22T12:53:15;19.37;;;8.48;;
49384;SDS011;36795;45.028;38.968;2023-06-22T12:56:01;20.45;;;5.87;;
49384;SDS011;36795;45.028;38.968;2023-06-22T12:58:47;25.75;;;11.90;;
49384;SDS011;36795;45.028;38.968;2023-06-22T13:01:33;24.83;;;11.55;;
49384;SDS011;36795;45.028;38.968;2023-06-22T13:04:20;14.68;;;5.00;;
49384;SDS011;36795;45.028;38.968;2023-06-22T13:07:06;16.65;;;5.40;;
49384;SDS011;36795;45.028;38.968;2023-06-22T13:09:55;20.00;;;6.00;;
49384;SDS011;36795;45.028;38.968;2023-06-22T13:12:40;22.02;;;5.57;;
49384;SDS011;36795;45.028;38.968;2023-06-22T13:15:27;22.37;;;7.00;;
49384;SDS011;36795;45.028;38.968;2023-06-22T13:18:14;18.55;;;5.72;;
49384;SDS011;36795;45.028;38.968;2023-06-22T13:21:00;18.55;;;4.62;;
49384;SDS011;36795;45.028;38.968;2023-06-22T13:23:49;16.23;;;4.60;;
49384;SDS011;36795;45.028;38.968;2023-06-22T13:26:35;16.55;;;4.43;;
49384;SDS011;36795;45.028;38.968;2023-06-22T13:29:21;18.33;;;5.60;;
49384;SDS011;36795;45.028;38.968;2023-06-22T13:32:07;16.60;;;4.80;;
49384;SDS011;36795;45.028;38.968;2023-06-22T13:34:54;15.45;;;3.97;;
49384;SDS011;36795;45.028;38.968;2023-06-22T13:37:40;15.65;;;4.78;;
49384;SDS011;36795;45.028;38.968;2023-06-22T13:40:26;10.50;;;4.20;;
49384;SDS011;36795;45.028;38.968;2023-06-22T13:43:16;18.05;;;5.20;;
49384;SDS011;36795;45.028;38.968;2023-06-22T13:46:03;16.35;;;4.15;;
49384;SDS011;36795;45.028;38.968;2023-06-22T13:51:42;16.83;;;4.30;;
49384;SDS011;36795;45.028;38.968;2023-06-22T13:54:47;16.15;;;4.40;;
49384;SDS011;36795;45.028;38.968;2023-06-22T13:57:33;16.90;;;4.00;;
49384;SDS011;36795;45.028;38.968;2023-06-22T14:00:20;17.55;;;4.80;;
49384;SDS011;36795;45.028;38.968;2023-06-22T14:03:07;16.70;;;4.22;;
49384;SDS011;36795;45.028;38.968;2023-06-22T14:05:53;16.85;;;4.32;;
49384;SDS011;36795;45.028;38.968;2023-06-22T14:08:41;16.95;;;4.60;;
49384;SDS011;36795;45.028;38.968;2023-06-22T14:11:26;14.55;;;3.85;;
49384;SDS011;36795;45.028;38.968;2023-06-22T14:14:14;20.20;;;5.75;;
49384;SDS011;36795;45.028;38.968;2023-06-22T14:17:04;19.92;;;4.72;;
49384;SDS011;36795;45.028;38.968;2023-06-22T14:19:51;13.35;;;3.95;;
49384;SDS011;36795;45.028;38.968;2023-06-22T14:22:40;14.15;;;3.83;;
49384;SDS011;36795;45.028;38.968;2023-06-22T14:25:34;15.15;;;3.58;;
49384;SDS011;36795;45.028;38.968;2023-06-22T14:28:19;19.83;;;4.37;;
49384;SDS011;36795;45.028;38.968;2023-06-22T14:31:06;15.27;;;4.07;;
49384;SDS011;36795;45.028;38.968;2023-06-22T14:33:54;13.18;;;3.83;;
49384;SDS011;36795;45.028;38.968;2023-06-22T14:36:42;18.60;;;5.05;;
49384;SDS011;36795;45.028;38.968;2023-06-22T14:39:28;17.58;;;4.93;;
49384;SDS011;36795;45.028;38.968;2023-06-22T14:42:15;14.77;;;3.30;;
49384;SDS011;36795;45.028;38.968;2023-06-22T14:45:01;12.77;;;4.25;;
49384;SDS011;36795;45.028;38.968;2023-06-22T14:47:49;24.17;;;7.85;;
49384;SDS011;36795;45.028;38.968;2023-06-22T14:50:34;28.02;;;8.75;;
49384;SDS011;36795;45.028;38.968;2023-06-22T14:53:22;17.92;;;3.37;;
49384;SDS011;36795;45.028;38.968;2023-06-22T14:56:08;14.43;;;3.53;;
49384;SDS011;36795;45.028;38.968;2023-06-22T14:58:55;17.80;;;4.60;;
49384;SDS011;36795;45.028;38.968;2023-06-22T15:01:42;17.05;;;5.07;;
49384;SDS011;36795;45.028;38.968;2023-06-22T15:04:37;16.67;;;4.25;;
49384;SDS011;36795;45.028;38.968;2023-06-22T15:07:24;18.25;;;4.60;;
49384;SDS011;36795;45.028;38.968;2023-06-22T15:10:10;16.92;;;3.85;;
49384;SDS011;36795;45.028;38.968;2023-06-22T15:12:56;15.82;;;3.90;;
49384;SDS011;36795;45.028;38.968;2023-06-22T15:15:42;15.43;;;4.78;;
49384;SDS011;36795;45.028;38.968;2023-06-22T15:18:29;15.63;;;3.90;;
49384;SDS011;36795;45.028;38.968;2023-06-22T15:21:16;12.32;;;3.17;;
49384;SDS011;36795;45.028;38.968;2023-06-22T15:24:02;10.45;;;2.70;;
49384;SDS011;36795;45.028;38.968;2023-06-22T15:26:49;15.02;;;3.97;;
49384;SDS011;36795;45.028;38.968;2023-06-22T15:29:35;14.20;;;3.35;;
49384;SDS011;36795;45.028;38.968;2023-06-22T15:32:22;13.48;;;3.45;;
49384;SDS011;36795;45.028;38.968;2023-06-22T15:35:08;23.55;;;6.47;;
49384;SDS011;36795;45.028;38.968;2023-06-22T15:37:54;17.20;;;3.90;;
49384;SDS011;36795;45.028;38.968;2023-06-22T15:40:40;14.13;;;3.40;;
49384;SDS011;36795;45.028;38.968;2023-06-22T15:43:26;17.30;;;4.05;;
49384;SDS011;36795;45.028;38.968;2023-06-22T15:46:12;12.02;;;3.58;;
49384;SDS011;36795;45.028;38.968;2023-06-22T15:49:01;11.85;;;3.40;;
49384;SDS011;36795;45.028;38.968;2023-06-22T15:51:47;15.18;;;3.25;;
49384;SDS011;36795;45.028;38.968;2023-06-22T15:54:33;13.05;;;2.87;;
49384;SDS011;36795;45.028;38.968;2023-06-22T15:57:19;13.75;;;3.10;;
49384;SDS011;36795;45.028;38.968;2023-06-22T16:00:05;16.60;;;3.30;;
49384;SDS011;36795;45.028;38.968;2023-06-22T16:02:52;15.25;;;3.45;;
49384;SDS011;36795;45.028;38.968;2023-06-22T16:05:38;16.35;;;3.42;;
49384;SDS011;36795;45.028;38.968;2023-06-22T16:08:24;16.25;;;3.62;;
49384;SDS011;36795;45.028;38.968;2023-06-22T16:11:15;17.70;;;3.85;;
49384;SDS011;36795;45.028;38.968;2023-06-22T16:14:01;16.92;;;3.90;;
49384;SDS011;36795;45.028;38.968;2023-06-22T16:16:48;16.80;;;3.65;;
49384;SDS011;36795;45.028;38.968;2023-06-22T16:19:34;17.62;;;4.47;;
49384;SDS011;36795;45.028;38.968;2023-06-22T16:22:21;14.70;;;3.40;;
49384;SDS011;36795;45.028;38.968;2023-06-22T16:25:07;18.02;;;4.25;;